Time;durP1;ratioP1;P1;durP2;ratioP2;P2;SDS_P1;SDS_P2;PMS_P1;PMS_P2;Temp;Humidity;BMP_temperature;BMP_pressure;BME280_temperature;BME280_humidity;BME280_pressure;Samples;Min_cycle;Max_cycle;Signal;HPM_P1;HPM_P2
2022/04/09 00:00:11;;;;;;;1.60;1.50;;;;;;;13.23;100.00;94011.06;5074503;28;20062;-58
2022/04/09 00:02:39;;;;;;;1.95;1.40;;;;;;;13.33;100.00;93995.50;5071009;28;20491;-53
2022/04/09 00:05:09;;;;;;;1.88;1.50;;;;;;;13.50;100.00;94012.41;5072592;28;20539;-56
2022/04/09 00:07:37;;;;;;;1.55;1.35;;;;;;;13.41;100.00;94028.81;5067735;28;20068;-57
2022/04/09 00:10:09;;;;;;;1.65;1.35;;;;;;;13.63;100.00;94027.31;5068385;28;21960;-55
2022/04/09 00:12:38;;;;;;;1.40;1.30;;;;;;;13.57;100.00;94009.66;5063467;28;20063;-55
2022/04/09 00:15:07;;;;;;;1.60;1.50;;;;;;;13.72;100.00;94001.31;5070105;28;20072;-52
2022/04/09 00:17:39;;;;;;;2.53;1.40;;;;;;;13.60;100.00;94032.25;5066083;28;20052;-57
2022/04/09 00:20:08;;;;;;;1.40;1.30;;;;;;;13.40;100.00;93996.22;5065330;28;20523;-58
2022/04/09 00:22:38;;;;;;;3.05;1.70;;;;;;;13.54;100.00;94010.91;5063485;28;20076;-59
2022/04/09 00:25:09;;;;;;;1.55;1.40;;;;;;;13.40;100.00;94049.16;5064889;28;20075;-55
2022/04/09 00:27:37;;;;;;;3.40;1.63;;;;;;;13.25;100.00;93993.97;5066180;28;20068;-57
2022/04/09 00:30:08;;;;;;;1.95;1.40;;;;;;;13.18;100.00;94026.78;5067756;28;20068;-53
2022/04/09 00:32:36;;;;;;;1.42;1.33;;;;;;;13.11;100.00;94040.09;5065612;28;20114;-60
2022/04/09 00:35:05;;;;;;;1.60;1.40;;;;;;;12.79;100.00;94037.56;5062687;28;20482;-50
2022/04/09 00:37:42;;;;;;;1.95;1.30;;;;;;;12.68;100.00;94062.06;5064456;28;20553;-55
2022/04/09 00:40:13;;;;;;;2.58;1.40;;;;;;;12.43;100.00;94075.28;5072847;28;20576;-55
2022/04/09 00:42:42;;;;;;;1.40;1.30;;;;;;;12.30;100.00;94102.59;5068087;28;20071;-49
2022/04/09 00:45:10;;;;;;;2.00;1.60;;;;;;;12.34;100.00;94087.13;5070241;28;20623;-49
2022/04/09 00:47:39;;;;;;;1.73;1.50;;;;;;;12.09;100.00;94053.56;5067100;28;20473;-51
2022/04/09 00:50:09;;;;;;;1.73;1.52;;;;;;;11.95;100.00;94118.03;5068530;28;20459;-53
2022/04/09 00:52:39;;;;;;;1.73;1.63;;;;;;;11.85;100.00;94093.91;5069813;28;20064;-51
2022/04/09 00:55:08;;;;;;;2.05;1.60;;;;;;;11.63;100.00;94139.06;5068873;28;20570;-54
2022/04/09 00:57:40;;;;;;;2.55;1.88;;;;;;;11.50;100.00;94149.66;5066868;28;20075;-52
2022/04/09 01:00:10;;;;;;;4.32;1.80;;;;;;;11.55;100.00;94178.06;5063388;28;20065;-56
2022/04/09 01:02:40;;;;;;;2.75;1.50;;;;;;;11.37;100.00;94168.16;5070429;28;20076;-48
2022/04/09 01:05:09;;;;;;;1.60;1.50;;;;;;;11.04;100.00;94108.31;5071891;28;20056;-45
2022/04/09 01:07:38;;;;;;;7.22;1.80;;;;;;;9.90;100.00;94198.72;5064712;28;20072;-54
2022/04/09 01:10:08;;;;;;;1.58;1.50;;;;;;;9.42;100.00;94303.91;5069315;28;20071;-51
2022/04/09 01:12:38;;;;;;;1.60;1.50;;;;;;;9.08;100.00;94307.25;5069481;28;20110;-50
2022/04/09 01:15:09;;;;;;;1.70;1.60;;;;;;;8.62;100.00;94317.31;5069795;28;20060;-47
2022/04/09 01:17:37;;;;;;;1.60;1.50;;;;;;;8.27;100.00;94330.19;5068850;28;20079;-49
2022/04/09 01:20:17;;;;;;;1.77;1.67;;;;;;;7.90;100.00;94345.03;5069185;28;20064;-49
2022/04/09 01:22:46;;;;;;;3.27;1.70;;;;;;;8.89;100.00;94365.69;5066364;28;20051;-47
2022/04/09 01:25:15;;;;;;;1.60;1.50;;;;;;;12.46;100.00;94378.81;5068808;28;20076;-52
2022/04/09 01:27:43;;;;;;;1.70;1.60;;;;;;;8.86;100.00;94389.72;5069259;28;20072;-50
2022/04/09 01:30:12;;;;;;;1.88;1.77;;;;;;;8.16;100.00;94412.03;5069132;28;20535;-49
2022/04/09 01:32:40;;;;;;;1.80;1.70;;;;;;;9.38;100.00;94409.69;5068429;28;20076;-46
2022/04/09 01:35:08;;;;;;;1.80;1.70;;;;;;;9.58;100.00;94423.84;5069360;28;20375;-48
2022/04/09 01:37:37;;;;;;;1.80;1.70;;;;;;;8.81;100.00;94440.22;5068257;28;20568;-48
2022/04/09 01:40:07;;;;;;;1.90;1.80;;;;;;;8.98;100.00;94435.53;5067211;28;20427;-48
2022/04/09 01:42:36;;;;;;;1.90;1.80;;;;;;;8.01;100.00;94454.00;5069218;28;20068;-55
2022/04/09 01:45:05;;;;;;;2.00;1.90;;;;;;;7.79;100.00;94456.47;5069413;28;20060;-45
2022/04/09 01:47:34;;;;;;;1.92;1.80;;;;;;;7.74;100.00;94478.97;5069246;28;20080;-51
2022/04/09 01:50:02;;;;;;;1.98;1.75;;;;;;;7.47;100.00;94482.97;5067577;28;20075;-51
2022/04/09 01:52:30;;;;;;;1.90;1.80;;;;;;;7.25;100.00;94505.53;5059239;28;20079;-54
2022/04/09 01:54:58;;;;;;;2.00;1.90;;;;;;;6.54;100.00;94518.59;5061512;28;20082;-52
2022/04/09 01:57:28;;;;;;;1.90;1.80;;;;;;;6.59;100.00;94536.41;5059617;28;20581;-53
2022/04/09 01:59:59;;;;;;;2.03;1.88;;;;;;;6.34;100.00;94544.31;5058668;28;20072;-54
2022/04/09 02:02:27;;;;;;;2.10;2.00;;;;;;;6.33;100.00;94563.63;5062591;28;20313;-49
2022/04/09 02:04:56;;;;;;;2.05;1.95;;;;;;;5.81;100.00;94581.41;5060662;28;20076;-57
2022/04/09 02:07:24;;;;;;;2.00;1.90;;;;;;;8.41;100.00;94605.13;5063312;28;20083;-50
2022/04/09 02:09:52;;;;;;;2.10;2.00;;;;;;;7.26;100.00;94494.06;5063014;28;20135;-51
2022/04/09 02:12:21;;;;;;;2.15;2.05;;;;;;;5.46;100.00;94646.84;5063389;28;20071;-52
2022/04/09 02:14:50;;;;;;;2.15;2.00;;;;;;;6.04;100.00;94647.84;5067426;28;20090;-56
2022/04/09 02:17:19;;;;;;;2.30;2.20;;;;;;;6.03;100.00;94666.34;5066307;28;20533;-53
2022/04/09 02:19:47;;;;;;;2.30;2.20;;;;;;;-146.19;100.00;58918.88;5062971;28;20553;-51
2022/04/09 02:22:17;;;;;;;2.33;2.22;;;;;;;-146.19;100.00;58918.88;5064738;28;20060;-50
2022/04/09 02:24:46;;;;;;;2.30;2.20;;;;;;;-146.19;100.00;58918.88;5064487;28;20808;-53
2022/04/09 02:27:14;;;;;;;2.50;2.40;;;;;;;-146.19;100.00;58918.88;5064581;28;20114;-51
2022/04/09 02:29:43;;;;;;;2.30;2.20;;;;;;;-146.19;100.00;58918.88;5066846;28;20084;-50
2022/04/09 02:32:12;;;;;;;2.30;2.20;;;;;;;-146.19;100.00;58918.88;5068582;28;20084;-52
2022/04/09 02:34:40;;;;;;;2.47;2.38;;;;;;;5.16;100.00;94773.63;5065878;28;20064;-53
2022/04/09 02:37:08;;;;;;;2.47;2.38;;;;;;;5.14;100.00;94782.56;5068080;28;20068;-53
2022/04/09 02:39:37;;;;;;;2.50;2.40;;;;;;;5.07;100.00;94797.22;5066716;28;20067;-50
2022/04/09 02:42:05;;;;;;;2.50;2.40;;;;;;;4.71;100.00;94805.06;5064882;28;20067;-49
2022/04/09 02:44:33;;;;;;;2.80;2.70;;;;;;;4.83;100.00;94816.13;5060641;28;20506;-52
2022/04/09 02:47:01;;;;;;;2.47;2.38;;;;;;;4.95;100.00;94828.78;5063773;28;20068;-50
2022/04/09 02:49:31;;;;;;;2.60;2.50;;;;;;;5.41;100.00;94852.19;5062741;28;20072;-51
2022/04/09 02:52:00;;;;;;;2.55;2.45;;;;;;;5.22;100.00;94861.81;5063720;28;20064;-55
2022/04/09 02:54:28;;;;;;;2.50;2.40;;;;;;;5.01;100.00;94879.59;5064000;28;20443;-53
2022/04/09 02:56:56;;;;;;;2.58;2.47;;;;;;;4.99;100.00;94885.00;5065078;28;20084;-52
2022/04/09 02:59:24;;;;;;;2.67;2.58;;;;;;;4.89;100.00;94899.09;5066187;28;20485;-55
2022/04/09 03:01:52;;;;;;;2.70;2.50;;;;;;;4.80;100.00;94911.25;5061680;28;20079;-55
2022/04/09 03:04:22;;;;;;;3.00;2.80;;;;;;;5.08;100.00;94927.66;5064594;28;20064;-56
2022/04/09 03:06:51;;;;;;;2.78;2.67;;;;;;;5.14;100.00;94934.09;5065257;28;20078;-54
2022/04/09 03:09:20;;;;;;;3.08;2.88;;;;;;;4.98;100.00;94943.41;5063176;28;20072;-51
2022/04/09 03:11:49;;;;;;;3.00;2.80;;;;;;;5.02;100.00;94964.00;5064403;28;20322;-52
2022/04/09 03:14:17;;;;;;;4.10;3.80;;;;;;;5.20;100.00;94977.94;5064671;28;20084;-51
2022/04/09 03:16:46;;;;;;;3.92;3.58;;;;;;;4.96;100.00;95002.00;5060981;28;20072;-49
2022/04/09 03:19:14;;;;;;;3.00;2.80;;;;;;;5.16;100.00;95018.38;5064926;28;20290;-52
2022/04/09 03:21:42;;;;;;;3.53;3.22;;;;;;;4.93;100.00;95021.41;5063881;28;20648;-51
2022/04/09 03:24:12;;;;;;;3.60;3.30;;;;;;;5.32;100.00;95036.84;5060222;28;20079;-47
2022/04/09 03:26:40;;;;;;;3.90;3.60;;;;;;;5.34;100.00;95029.69;5062920;28;20092;-50
2022/04/09 03:29:08;;;;;;;3.40;3.20;;;;;;;5.20;100.00;95033.63;5066518;28;21931;-51
2022/04/09 03:31:36;;;;;;;4.00;3.70;;;;;;;5.18;100.00;95043.38;5065499;28;20076;-48
2022/04/09 03:34:05;;;;;;;4.78;4.38;;;;;;;5.41;100.00;95062.09;5060653;28;20190;-50
2022/04/09 03:36:33;;;;;;;3.75;3.45;;;;;;;5.04;100.00;95053.53;5061085;28;20060;-51
2022/04/09 03:39:01;;;;;;;4.95;4.55;;;;;;;5.59;100.00;95077.81;5065750;28;20091;-47
2022/04/09 03:41:31;;;;;;;4.25;3.85;;;;;;;5.22;100.00;95083.94;5066842;28;20420;-48
2022/04/09 03:43:59;;;;;;;4.37;3.97;;;;;;;5.44;100.00;95093.19;5069872;28;20174;-51
2022/04/09 03:46:27;;;;;;;3.70;3.40;;;;;;;5.30;100.00;95106.75;5067460;28;20068;-50
2022/04/09 03:48:56;;;;;;;3.67;3.38;;;;;;;5.00;100.00;95098.22;5065642;28;20064;-47
2022/04/09 03:51:24;;;;;;;4.03;3.72;;;;;;;5.37;100.00;95101.78;5066968;28;20059;-52
2022/04/09 03:53:52;;;;;;;3.35;3.15;;;;;;;5.14;100.00;95117.81;5066142;27;20095;-48
2022/04/09 03:56:22;;;;;;;3.60;3.33;;;;;;;5.06;100.00;95127.31;5069107;28;20479;-52
2022/04/09 03:58:52;;;;;;;3.38;3.08;;;;;;;5.12;100.00;95139.81;5069444;28;20076;-47
2022/04/09 04:01:24;;;;;;;3.53;3.33;;;;;;;4.98;100.00;95159.41;5063716;28;20075;-53
2022/04/09 04:03:52;;;;;;;3.40;3.20;;;;;;;5.07;100.00;95169.00;5065281;28;20076;-50
2022/04/09 04:06:21;;;;;;;3.20;3.00;;;;;;;5.20;100.00;95193.03;5068143;28;20456;-49
2022/04/09 04:08:51;;;;;;;4.13;3.72;;;;;;;5.28;100.00;95192.31;5066725;28;20086;-46
2022/04/09 04:11:19;;;;;;;4.30;3.90;;;;;;;5.15;100.00;95197.03;5067741;28;20516;-56
2022/04/09 04:13:48;;;;;;;3.10;2.90;;;;;;;5.00;100.00;95200.09;5069807;28;20064;-55
2022/04/09 04:16:18;;;;;;;3.38;3.08;;;;;;;4.90;100.00;95206.31;5068333;28;20075;-51
2022/04/09 04:18:46;;;;;;;3.23;2.97;;;;;;;4.97;100.00;95203.00;5067046;28;20075;-51
2022/04/09 04:21:15;;;;;;;3.90;3.60;;;;;;;5.15;100.00;95192.63;5067256;28;20067;-53
2022/04/09 04:23:43;;;;;;;3.35;3.13;;;;;;;5.08;100.00;95222.06;5066674;28;20092;-48
2022/04/09 04:26:11;;;;;;;4.13;3.83;;;;;;;5.21;100.00;95233.03;5066772;28;20126;-53
2022/04/09 04:28:39;;;;;;;3.75;3.45;;;;;;;5.15;100.00;95242.25;5065566;28;20060;-51
2022/04/09 04:31:08;;;;;;;3.22;3.03;;;;;;;5.09;100.00;95245.44;5063559;28;20712;-51
2022/04/09 04:33:38;;;;;;;3.95;3.63;;;;;;;5.02;100.00;95254.81;5066022;28;20064;-49
2022/04/09 04:36:06;;;;;;;3.42;3.22;;;;;;;5.08;100.00;95274.34;5065414;28;20072;-47
2022/04/09 04:38:34;;;;;;;3.65;3.40;;;;;;;5.01;100.00;95276.66;5064319;28;21087;-45
2022/04/09 04:41:04;;;;;;;4.03;3.72;;;;;;;4.97;100.00;95277.91;5067803;28;20072;-48
2022/04/09 04:43:33;;;;;;;3.90;3.60;;;;;;;5.07;100.00;95304.03;5063187;28;20398;-48
2022/04/09 04:46:02;;;;;;;3.42;3.15;;;;;;;4.96;100.00;95300.63;5067701;28;20044;-46
2022/04/09 04:48:30;;;;;;;5.88;3.78;;;;;;;5.02;100.00;95304.44;5066297;28;20083;-55
2022/04/09 04:51:00;;;;;;;3.75;3.45;;;;;;;4.93;100.00;95313.13;5063108;28;20099;-50
2022/04/09 04:53:28;;;;;;;4.15;3.75;;;;;;;5.04;100.00;95318.19;5063423;28;20139;-48
2022/04/09 04:55:56;;;;;;;3.25;3.05;;;;;;;4.94;100.00;95340.88;5064716;28;20809;-50
2022/04/09 04:58:24;;;;;;;4.47;3.35;;;;;;;4.97;100.00;95338.81;5063220;28;20143;-53
2022/04/09 05:00:53;;;;;;;4.75;4.35;;;;;;;5.07;100.00;95346.66;5062295;28;20083;-55
2022/04/09 05:03:21;;;;;;;5.07;4.53;;;;;;;5.27;100.00;95370.19;5066673;28;20087;-50
2022/04/09 05:05:49;;;;;;;4.60;3.95;;;;;;;4.98;100.00;95377.03;5064830;28;20087;-56
2022/04/09 05:08:19;;;;;;;4.57;4.10;;;;;;;5.19;100.00;95376.91;5065129;28;20147;-50
2022/04/09 05:10:47;;;;;;;4.15;3.75;;;;;;;4.91;100.00;95382.97;5062377;28;20080;-52
2022/04/09 05:13:15;;;;;;;4.55;4.15;;;;;;;4.99;100.00;95381.31;5065266;28;20060;-51
2022/04/09 05:15:43;;;;;;;4.25;3.90;;;;;;;5.11;100.00;95402.09;5061813;28;20060;-56
2022/04/09 05:18:12;;;;;;;4.57;4.22;;;;;;;4.99;100.00;95417.91;5063965;28;20067;-54
2022/04/09 05:20:40;;;;;;;4.43;4.03;;;;;;;4.98;100.00;95434.50;5064645;28;20091;-54
2022/04/09 05:23:08;;;;;;;4.90;4.50;;;;;;;5.19;100.00;95447.47;5064493;28;20460;-53
2022/04/09 05:25:38;;;;;;;6.03;4.50;;;;;;;5.23;100.00;95448.88;5063045;28;20063;-56
2022/04/09 05:28:08;;;;;;;6.80;5.33;;;;;;;4.80;100.00;95456.22;5064904;28;20064;-54
2022/04/09 05:30:43;;;;;;;6.93;6.15;;;;;;;4.76;100.00;95453.88;5064344;28;20076;-55
2022/04/09 05:33:11;;;;;;;6.30;5.00;;;;;;;4.93;100.00;95475.09;5061928;28;20135;-45
2022/04/09 05:35:39;;;;;;;6.20;5.43;;;;;;;5.19;100.00;95483.22;5061199;28;20136;-56
2022/04/09 05:38:09;;;;;;;5.35;4.85;;;;;;;4.88;100.00;95487.69;5061788;28;20455;-46
2022/04/09 05:40:39;;;;;;;4.80;4.32;;;;;;;4.96;100.00;95499.16;5063694;28;20106;-51
2022/04/09 05:43:07;;;;;;;5.80;5.28;;;;;;;4.85;100.00;95516.69;5062267;28;20079;-48
2022/04/09 05:45:36;;;;;;;6.32;5.68;;;;;;;5.00;100.00;95520.59;5061372;28;21500;-53
2022/04/09 05:48:05;;;;;;;6.78;5.95;;;;;;;4.98;100.00;95528.56;5059387;28;20120;-47
2022/04/09 05:50:33;;;;;;;7.15;6.07;;;;;;;4.70;100.00;95542.34;5060972;28;20048;-47
2022/04/09 05:53:02;;;;;;;8.60;7.25;;;;;;;4.90;100.00;95556.31;5060713;28;20069;-48
2022/04/09 05:55:30;;;;;;;8.35;6.68;;;;;;;4.91;100.00;95553.56;5060777;28;20702;-58
2022/04/09 05:58:00;;;;;;;6.95;5.53;;;;;;;4.97;100.00;95565.28;5064032;28;20501;-46
2022/04/09 06:00:29;;;;;;;6.38;5.68;;;;;;;5.05;100.00;95559.38;5060395;28;20064;-48
2022/04/09 06:02:57;;;;;;;7.07;5.85;;;;;;;5.19;100.00;95564.25;5066854;28;20072;-46
2022/04/09 06:05:26;;;;;;;6.43;5.40;;;;;;;5.07;100.00;95578.38;5063058;28;20087;-49
2022/04/09 06:07:54;;;;;;;6.38;5.03;;;;;;;4.92;100.00;95576.13;5065622;28;20060;-49
2022/04/09 06:10:22;;;;;;;7.22;5.85;;;;;;;5.37;100.00;95585.34;5064733;28;20518;-51
2022/04/09 06:12:51;;;;;;;5.40;4.85;;;;;;;5.03;100.00;95592.69;5061374;28;20060;-49
2022/04/09 06:15:21;;;;;;;7.32;5.90;;;;;;;4.83;100.00;95597.81;5068887;28;20453;-52
2022/04/09 06:17:49;;;;;;;7.65;6.32;;;;;;;5.30;100.00;95605.13;5064067;28;20091;-48
2022/04/09 06:20:18;;;;;;;5.55;4.53;;;;;;;5.18;100.00;95607.84;5066121;28;20090;-47
2022/04/09 06:22:46;;;;;;;6.78;6.10;;;;;;;5.12;100.00;95602.31;5065097;28;20546;-52
2022/04/09 06:25:14;;;;;;;7.00;5.90;;;;;;;5.38;100.00;95608.72;5063837;28;20451;-50
2022/04/09 06:27:42;;;;;;;6.93;5.50;;;;;;;5.25;100.00;95610.75;5063652;28;20076;-46
2022/04/09 06:30:12;;;;;;;6.07;5.28;;;;;;;5.04;100.00;95613.44;5065202;28;20943;-49
2022/04/09 06:32:42;;;;;;;7.57;6.18;;;;;;;5.27;100.00;95616.69;5065201;28;20502;-45
2022/04/09 06:35:10;;;;;;;8.38;6.07;;;;;;;5.21;100.00;95627.66;5060421;28;20477;-45
2022/04/09 06:37:39;;;;;;;10.30;7.35;;;;;;;5.44;100.00;95623.91;5064633;28;20157;-50
2022/04/09 06:40:09;;;;;;;7.22;5.80;;;;;;;5.26;100.00;95633.31;5063689;28;20087;-48
2022/04/09 06:42:37;;;;;;;7.70;6.90;;;;;;;5.17;100.00;95640.16;5061429;28;20080;-55
2022/04/09 06:45:08;;;;;;;8.55;7.18;;;;;;;5.69;100.00;95647.91;5061735;28;20080;-50
2022/04/09 06:47:37;;;;;;;6.75;5.57;;;;;;;5.36;100.00;95649.84;5065104;28;20701;-52
2022/04/09 06:50:11;;;;;;;6.63;5.93;;;;;;;5.42;100.00;95653.75;5062559;28;20072;-52
2022/04/09 06:52:40;;;;;;;6.80;5.95;;;;;;;5.44;100.00;95660.50;5065036;28;20098;-46
2022/04/09 06:55:10;;;;;;;5.18;4.63;;;;;;;5.13;100.00;95664.09;5059873;28;20064;-51
2022/04/09 06:57:39;;;;;;;7.28;5.22;;;;;;;5.29;100.00;95660.97;5063182;28;20076;-47
2022/04/09 07:00:11;;;;;;;6.73;5.53;;;;;;;5.46;100.00;95678.66;5065466;28;20065;-51
2022/04/09 07:02:39;;;;;;;6.38;5.63;;;;;;;5.41;100.00;95686.09;5064158;28;20459;-48
2022/04/09 07:05:10;;;;;;;4.60;4.20;;;;;;;5.38;100.00;95681.94;5062691;28;20479;-57
2022/04/09 07:07:38;;;;;;;5.28;4.78;;;;;;;5.41;100.00;95689.53;5062988;28;20080;-47
2022/04/09 07:10:08;;;;;;;6.93;5.82;;;;;;;5.48;100.00;95688.03;5064715;28;20079;-50
2022/04/09 07:12:37;;;;;;;5.03;4.55;;;;;;;5.65;100.00;95681.34;5066532;28;20051;-52
2022/04/09 07:15:06;;;;;;;5.55;4.95;;;;;;;5.60;100.00;95687.91;5066087;28;20104;-51
2022/04/09 07:17:35;;;;;;;7.10;5.45;;;;;;;5.91;100.00;95688.69;5065377;28;20091;-48
2022/04/09 07:20:05;;;;;;;6.18;5.57;;;;;;;6.10;100.00;95691.38;5069247;28;20083;-48
2022/04/09 07:22:36;;;;;;;5.60;4.90;;;;;;;6.11;100.00;95698.25;5068855;28;20068;-53
2022/04/09 07:25:06;;;;;;;8.65;5.47;;;;;;;5.79;100.00;95701.06;5066782;28;20080;-51
2022/04/09 07:27:36;;;;;;;7.55;5.47;;;;;;;5.90;100.00;95705.34;5068232;28;20063;-50
2022/04/09 07:30:05;;;;;;;7.50;5.57;;;;;;;6.40;100.00;95707.91;5063447;28;20651;-50
2022/04/09 07:32:33;;;;;;;7.03;5.65;;;;;;;6.07;100.00;95706.53;5071637;28;20490;-54
2022/04/09 07:35:02;;;;;;;7.43;6.25;;;;;;;6.58;100.00;95706.28;5069220;28;20071;-49
2022/04/09 07:37:30;;;;;;;8.02;5.53;;;;;;;6.29;100.00;95716.72;5069334;28;20060;-48
2022/04/09 07:40:00;;;;;;;7.32;5.63;;;;;;;6.48;100.00;95717.72;5064574;28;20059;-54
2022/04/09 07:42:28;;;;;;;5.13;4.63;;;;;;;6.05;100.00;95711.06;5068394;28;20072;-52
2022/04/09 07:44:56;;;;;;;6.78;5.28;;;;;;;6.23;100.00;95712.06;5068483;28;20087;-52
2022/04/09 07:47:25;;;;;;;8.55;4.50;;;;;;;6.38;100.00;95718.53;5068885;28;20087;-48
2022/04/09 07:49:54;;;;;;;5.68;4.60;;;;;;;6.49;100.00;95720.19;5069196;28;20072;-54
2022/04/09 07:52:22;;;;;;;6.57;5.15;;;;;;;6.20;100.00;95727.22;5068758;28;20075;-48
2022/04/09 07:54:51;;;;;;;6.60;5.10;;;;;;;6.59;100.00;95728.88;5068778;28;20071;-50
2022/04/09 07:57:20;;;;;;;5.70;4.63;;;;;;;6.57;100.00;95727.34;5066455;28;20072;-47
2022/04/09 07:59:48;;;;;;;6.80;5.32;;;;;;;6.84;100.00;95727.47;5066146;28;20086;-55
2022/04/09 08:02:17;;;;;;;6.35;4.80;;;;;;;7.09;100.00;95731.31;5068716;28;20075;-52
2022/04/09 08:04:45;;;;;;;8.98;4.65;;;;;;;7.21;100.00;95733.78;5065135;28;20536;-48
2022/04/09 08:07:13;;;;;;;12.02;5.85;;;;;;;7.61;100.00;95734.34;5065103;28;20072;-48
2022/04/09 08:09:43;;;;;;;8.30;6.05;;;;;;;7.68;100.00;95731.97;5063013;28;20510;-47
2022/04/09 08:12:12;;;;;;;5.32;4.78;;;;;;;7.94;100.00;95747.84;5066582;28;20495;-55
2022/04/09 08:14:42;;;;;;;4.13;3.78;;;;;;;7.55;100.00;95747.22;5068052;28;20096;-48
2022/04/09 08:17:11;;;;;;;3.95;3.20;;;;;;;7.06;100.00;95743.88;5066937;28;20610;-51
2022/04/09 08:19:39;;;;;;;3.78;3.38;;;;;;;7.46;100.00;95756.75;5071061;28;20064;-50
2022/04/09 08:22:08;;;;;;;4.88;3.55;;;;;;;7.34;100.00;95761.34;5063344;28;20064;-51
2022/04/09 08:24:38;;;;;;;4.50;3.33;;;;;;;7.61;100.00;95768.44;5066630;28;20056;-50
2022/04/09 08:27:06;;;;;;;7.05;4.78;;;;;;;8.07;100.00;95769.34;5066530;28;20071;-53
2022/04/09 08:29:34;;;;;;;5.90;5.30;;;;;;;7.68;100.00;95776.59;5069018;28;20064;-53
2022/04/09 08:32:05;;;;;;;5.10;4.60;;;;;;;8.47;100.00;95760.31;5066106;28;20071;-53
2022/04/09 08:34:35;;;;;;;6.13;5.18;;;;;;;8.27;100.00;95762.19;5064698;28;20060;-54
2022/04/09 08:37:06;;;;;;;9.68;5.07;;;;;;;7.81;100.00;95776.22;5064949;28;20045;-52
2022/04/09 08:39:34;;;;;;;6.03;4.88;;;;;;;8.16;100.00;95777.34;5066601;28;20056;-58
2022/04/09 08:42:03;;;;;;;5.78;4.45;;;;;;;8.02;100.00;95778.66;5067779;28;20449;-53
2022/04/09 08:44:33;;;;;;;3.85;3.42;;;;;;;8.20;100.00;95773.44;5072746;28;20075;-53
2022/04/09 08:47:02;;;;;;;5.43;4.57;;;;;;;8.17;100.00;95777.19;5039893;28;20529;-52
2022/04/09 08:49:35;;;;;;;7.50;4.68;;;;;;;8.33;100.00;95777.38;5045929;28;20487;-50
2022/04/09 08:52:06;;;;;;;4.55;3.55;;;;;;;8.19;100.00;95777.88;5056121;28;20072;-50
2022/04/09 08:54:35;;;;;;;5.07;4.03;;;;;;;7.96;100.00;95787.09;5067423;28;20056;-51
2022/04/09 08:57:05;;;;;;;6.90;4.07;;;;;;;8.52;100.00;95773.00;5068840;28;20063;-57
2022/04/09 08:59:33;;;;;;;6.63;4.15;;;;;;;8.71;100.00;95775.50;5070747;28;20079;-56
2022/04/09 09:02:02;;;;;;;4.90;3.80;;;;;;;8.74;100.00;95774.34;5078225;28;20072;-56
2022/04/09 09:04:32;;;;;;;4.90;3.67;;;;;;;8.79;100.00;95777.38;5068829;28;20071;-53
2022/04/09 09:07:20;;;;;;;7.40;4.20;;;;;;;8.42;100.00;95767.78;5065858;28;20063;-52
2022/04/09 09:09:48;;;;;;;4.60;3.67;;;;;;;8.92;100.00;95784.88;5067920;28;20732;-53
2022/04/09 09:12:27;;;;;;;3.90;3.50;;;;;;;8.94;100.00;95789.00;5067469;28;20072;-52
2022/04/09 09:14:57;;;;;;;3.53;3.15;;;;;;;8.79;100.00;95780.81;5061183;28;20072;-51
2022/04/09 09:17:29;;;;;;;3.65;3.35;;;;;;;8.77;100.00;95793.31;5063582;28;20457;-48
2022/04/09 09:19:59;;;;;;;7.18;4.28;;;;;;;8.92;100.00;95790.97;5062447;28;20052;-50
2022/04/09 09:22:36;;;;;;;5.00;3.80;;;;;;;7.61;100.00;95813.06;5064108;28;20396;-52
2022/04/09 09:25:06;;;;;;;3.25;3.00;;;;;;;7.94;100.00;95804.78;5064463;28;20548;-52
2022/04/09 09:27:35;;;;;;;;;;;;;;;8.53;100.00;95814.06;5063988;28;20068;-48
2022/04/09 09:30:04;;;;;;;4.90;3.80;;;;;;;9.33;100.00;95801.00;5061452;28;19966;-48
2022/04/09 09:32:34;;;;;;;6.75;3.70;;;;;;;9.22;100.00;95802.03;5060644;28;20079;-52
2022/04/09 09:35:12;;;;;;;3.55;2.90;;;;;;;9.11;100.00;95802.28;5063325;28;20072;-50
2022/04/09 09:37:40;;;;;;;7.93;4.22;;;;;;;9.47;100.00;95809.16;5063415;28;20060;-51
2022/04/09 09:40:09;;;;;;;3.78;3.38;;;;;;;8.36;100.00;95822.69;5064942;28;20072;-49
2022/04/09 09:42:39;;;;;;;4.45;3.00;;;;;;;8.52;100.00;95815.03;5065814;28;20083;-57
2022/04/09 09:45:08;;;;;;;3.20;2.50;;;;;;;8.72;100.00;95815.75;5062619;28;20706;-49
2022/04/09 09:47:36;;;;;;;4.07;3.15;;;;;;;9.18;100.00;95827.00;5063698;28;20072;-49
2022/04/09 09:50:05;;;;;;;3.53;3.13;;;;;;;9.34;100.00;95836.84;5061297;28;20425;-49
2022/04/09 09:52:36;;;;;;;3.38;2.80;;;;;;;8.82;100.00;95839.34;5064064;28;20064;-54
2022/04/09 09:55:06;;;;;;;;;;;;;;;8.89;100.00;95843.84;5064128;28;20079;-51
2022/04/09 09:57:34;;;;;;;4.53;2.95;;;;;;;8.79;100.00;95832.56;5061132;28;19956;-53
2022/04/09 10:00:05;;;;;;;3.47;2.53;;;;;;;9.18;100.00;95830.47;5062264;28;20072;-53
2022/04/09 10:02:34;;;;;;;4.78;3.15;;;;;;;9.37;100.00;95810.25;5064292;28;20059;-50
2022/04/09 10:05:02;;;;;;;3.75;3.10;;;;;;;9.26;100.00;95827.91;5061429;28;20091;-53
2022/04/09 10:07:31;;;;;;;3.63;2.90;;;;;;;9.50;100.00;95826.47;5064430;28;20043;-54
2022/04/09 10:10:03;;;;;;;3.17;2.80;;;;;;;8.91;100.00;95838.44;5063547;28;20064;-54
2022/04/09 10:12:38;;;;;;;4.35;3.00;;;;;;;9.26;100.00;95835.81;5066407;28;20082;-49
2022/04/09 10:15:07;;;;;;;2.75;2.55;;;;;;;9.06;100.00;95841.38;5066374;28;20083;-51
2022/04/09 10:17:36;;;;;;;4.05;3.03;;;;;;;8.75;100.00;95853.06;5066313;28;20056;-53
2022/04/09 10:20:05;;;;;;;2.33;2.15;;;;;;;8.82;100.00;95853.31;5071223;28;20098;-51
2022/04/09 10:22:37;;;;;;;4.40;2.72;;;;;;;9.24;100.00;95843.00;5065531;28;20072;-51
2022/04/09 10:25:08;;;;;;;5.05;3.25;;;;;;;9.07;100.00;95843.03;5064007;28;20074;-56
2022/04/09 10:27:37;;;;;;;;;;;;;;;8.94;100.00;95849.47;5067453;28;20076;-48
2022/04/09 10:30:19;;;;;;;3.33;3.03;;;;;;;8.65;100.00;95856.75;5065613;28;20369;-52
2022/04/09 10:32:50;;;;;;;3.08;2.78;;;;;;;8.14;100.00;95853.63;5067422;28;20067;-50
2022/04/09 10:35:30;;;;;;;4.43;3.20;;;;;;;8.41;100.00;95852.03;5069549;28;20102;-55
2022/04/09 10:38:18;;;;;;;2.97;2.63;;;;;;;8.38;100.00;95861.03;5067793;28;20484;-50
2022/04/09 10:41:27;;;;;;;3.38;2.75;;;;;;;9.21;100.00;95853.00;5069230;28;20068;-55
2022/04/09 10:43:59;;;;;;;4.72;2.78;;;;;;;9.03;100.00;95840.69;5061896;28;20067;-49
2022/04/09 10:46:33;;;;;;;4.78;2.58;;;;;;;8.46;100.00;95852.41;5066391;28;20075;-56
2022/04/09 10:49:22;;;;;;;2.83;2.50;;;;;;;7.86;100.00;95839.63;5063942;28;20067;-53
2022/04/09 10:52:05;;;;;;;3.85;2.17;;;;;;;8.08;100.00;95856.81;5061920;28;20060;-48
2022/04/09 10:54:34;;;;;;;2.63;2.20;;;;;;;8.08;100.00;95857.66;5067962;28;20064;-49
2022/04/09 10:57:22;;;;;;;2.50;2.30;;;;;;;7.80;100.00;95867.28;5067048;28;20068;-52
2022/04/09 10:59:59;;;;;;;3.75;2.60;;;;;;;7.74;100.00;95869.63;5063390;28;20099;-46
2022/04/09 11:02:31;;;;;;;2.92;2.40;;;;;;;7.98;100.00;95866.53;5073087;28;20080;-55
2022/04/09 11:05:20;;;;;;;3.63;2.70;;;;;;;8.53;100.00;95877.97;5068949;28;20524;-49
2022/04/09 11:08:06;;;;;;;4.07;2.50;;;;;;;8.91;100.00;95869.97;5064137;28;20474;-48
2022/04/09 11:10:35;;;;;;;2.90;2.60;;;;;;;9.28;100.00;95875.09;5063736;28;20072;-48
2022/04/09 11:13:10;;;;;;;2.90;2.22;;;;;;;8.71;100.00;95878.00;5063993;28;20068;-52
2022/04/09 11:15:43;;;;;;;2.40;2.20;;;;;;;9.30;100.00;95873.16;5067926;28;20538;-48
2022/04/09 11:18:12;;;;;;;3.20;2.58;;;;;;;9.94;100.00;95858.00;5061602;28;20061;-50
2022/04/09 11:20:40;;;;;;;3.08;2.35;;;;;;;9.48;100.00;95873.97;5073163;28;20095;-51
2022/04/09 11:23:10;;;;;;;2.65;2.15;;;;;;;9.28;100.00;95873.28;5062730;28;20686;-52
2022/04/09 11:25:41;;;;;;;2.10;1.90;;;;;;;9.02;100.00;95890.81;5066974;28;20596;-53
2022/04/09 11:28:13;;;;;;;3.75;2.20;;;;;;;8.90;100.00;95882.31;5061879;28;20130;-54
2022/04/09 11:30:57;;;;;;;5.40;2.13;;;;;;;8.65;100.00;95889.09;5065851;28;20075;-53
2022/04/09 11:33:26;;;;;;;3.15;2.13;;;;;;;8.38;100.00;95891.72;5062625;28;20063;-52
2022/04/09 11:35:54;;;;;;;4.80;2.65;;;;;;;8.52;100.00;95891.25;5066407;28;20091;-53
2022/04/09 11:38:24;;;;;;;3.55;2.40;;;;;;;7.99;100.00;95897.09;5061908;28;20072;-48
2022/04/09 11:40:53;;;;;;;3.33;2.22;;;;;;;8.06;100.00;95887.66;5069613;28;20056;-53
2022/04/09 11:43:22;;;;;;;3.80;2.85;;;;;;;8.35;100.00;95886.72;5064414;28;22358;-48